Time;durP1;ratioP1;P1;durP2;ratioP2;P2;SDS_P1;SDS_P2;PMS_P1;PMS_P2;Temp;Humidity;BMP_temperature;BMP_pressure;BME280_temperature;BME280_humidity;BME280_pressure;Samples;Min_cycle;Max_cycle;Signal;HPM_P1;HPM_P2
2024/04/23 00:01:06;;;;;;;7.93;5.83;;;0.30;24.00;;;;;;5385496;26;20569;-70
2024/04/23 00:03:31;;;;;;;9.40;7.33;;;0.30;24.40;;;;;;5385206;26;20243;-71
2024/04/23 00:05:57;;;;;;;10.13;5.60;;;0.20;25.30;;;;;;5415873;26;20534;-72
2024/04/23 00:08:22;;;;;;;8.63;5.17;;;0.20;24.80;;;;;;5416372;26;20711;-71
2024/04/23 00:10:48;;;;;;;8.27;6.33;;;0.10;25.40;;;;;;5385390;26;20586;-70
2024/04/23 00:13:14;;;;;;;13.27;7.40;;;0.10;25.20;;;;;;5417276;26;20216;-71
2024/04/23 00:15:39;;;;;;;7.53;5.50;;;0.10;25.20;;;;;;5417300;26;20224;-72
2024/04/23 00:18:05;;;;;;;9.03;6.77;;;0.00;25.80;;;;;;5417397;26;20679;-72
2024/04/23 00:20:30;;;;;;;6.40;5.20;;;0.00;26.80;;;;;;5416771;26;20211;-71
2024/04/23 00:22:56;;;;;;;9.57;6.23;;;-0.10;27.10;;;;;;5417946;26;20327;-72
2024/04/23 00:25:21;;;;;;;7.50;5.67;;;0.00;27.30;;;;;;5415824;26;20223;-72
2024/04/23 00:27:47;;;;;;;8.43;6.67;;;-0.10;26.30;;;;;;5416300;26;20232;-72
2024/04/23 00:30:12;;;;;;;9.00;5.90;;;-0.10;28.60;;;;;;5415867;26;20219;-72
2024/04/23 00:32:38;;;;;;;8.13;5.00;;;-0.20;27.60;;;;;;5415961;26;20261;-71
2024/04/23 00:35:04;;;;;;;8.17;5.90;;;-0.20;27.50;;;;;;5415576;26;20220;-71
2024/04/23 00:37:29;;;;;;;9.93;5.83;;;-0.20;27.20;;;;;;5384495;26;20273;-71
2024/04/23 00:39:55;;;;;;;6.90;5.23;;;-0.20;26.90;;;;;;5416275;26;20270;-71
2024/04/23 00:42:21;;;;;;;9.80;5.57;;;-0.20;27.90;;;;;;5416099;26;20664;-71
2024/04/23 00:44:47;;;;;;;10.03;6.67;;;-0.30;27.50;;;;;;5415715;26;20328;-72
2024/04/23 00:47:13;;;;;;;7.47;5.55;;;-0.30;27.70;;;;;;5414961;26;20470;-72
2024/04/23 00:49:58;;;;;;;6.70;5.72;;;-0.30;28.40;;;;;;5418331;26;20753;-71
2024/04/23 00:52:25;;;;;;;9.47;7.00;;;-0.40;27.50;;;;;;5415593;26;20231;-71
2024/04/23 00:54:51;;;;;;;7.80;5.68;;;-0.40;27.70;;;;;;5415017;26;20603;-71
2024/04/23 00:57:16;;;;;;;8.50;6.67;;;-0.40;27.80;;;;;;5415249;26;20242;-71
2024/04/23 00:59:42;;;;;;;9.50;7.07;;;-0.50;28.30;;;;;;5415268;26;20255;-71
2024/04/23 01:02:08;;;;;;;9.70;5.90;;;-0.50;29.10;;;;;;5415610;26;20222;-71
2024/04/23 01:04:33;;;;;;;8.70;6.77;;;-0.50;28.30;;;;;;5415723;26;20219;-71
2024/04/23 01:06:59;;;;;;;9.30;6.30;;;-0.50;29.50;;;;;;5415815;26;20662;-71
2024/04/23 01:09:25;;;;;;;6.47;5.40;;;-0.50;30.00;;;;;;5415651;26;20339;-71
2024/04/23 01:11:50;;;;;;;10.97;6.57;;;-0.50;29.80;;;;;;5416071;26;20219;-72
2024/04/23 01:14:16;;;;;;;8.20;6.60;;;-0.50;29.80;;;;;;5384060;26;20679;-72
2024/04/23 01:16:48;;;;;;;8.73;5.80;;;-0.50;29.50;;;;;;5383072;26;20614;-72
2024/04/23 01:19:37;;;;;;;9.77;7.45;;;-0.50;29.50;;;;;;5383492;26;20461;-71
2024/04/23 01:22:23;;;;;;;9.82;6.32;;;-0.60;29.10;;;;;;5414824;26;20758;-72
2024/04/23 01:24:55;;;;;;;7.82;6.50;;;-0.50;29.20;;;;;;5383241;26;20682;-71
2024/04/23 01:27:21;;;;;;;8.13;6.65;;;-0.60;28.90;;;;;;5414905;26;20230;-71
2024/04/23 01:29:48;;;;;;;11.67;5.97;;;-0.60;29.90;;;;;;5383376;26;20296;-71
2024/04/23 01:32:16;;;;;;;10.90;6.82;;;-0.60;29.40;;;;;;5383481;26;20258;-72
2024/04/23 01:34:42;;;;;;;8.65;5.45;;;-0.60;29.70;;;;;;5414803;26;20227;-72
2024/04/23 01:37:09;;;;;;;10.03;6.00;;;-0.70;28.70;;;;;;5383589;26;20271;-72
2024/04/23 01:39:36;;;;;;;8.35;6.82;;;-0.70;30.20;;;;;;5415580;26;20587;-72
2024/04/23 01:42:02;;;;;;;7.88;5.72;;;-0.80;29.30;;;;;;5383743;26;20706;-72
2024/04/23 01:44:28;;;;;;;9.43;6.17;;;-0.80;29.80;;;;;;5414852;26;20222;-71
2024/04/23 01:46:55;;;;;;;6.65;5.75;;;-0.90;29.40;;;;;;5415131;26;20942;-72
2024/04/23 01:49:21;;;;;;;10.63;7.63;;;-0.90;29.90;;;;;;5415541;26;20581;-71
2024/04/23 01:51:47;;;;;;;8.93;5.93;;;-0.90;29.80;;;;;;5415122;26;20661;-71
2024/04/23 01:54:12;;;;;;;10.90;7.10;;;-0.90;31.30;;;;;;5383765;26;20526;-72
2024/04/23 01:56:38;;;;;;;9.37;6.20;;;-0.90;29.70;;;;;;5414542;26;20296;-72
2024/04/23 01:59:04;;;;;;;7.70;5.73;;;-1.00;30.00;;;;;;5415746;26;20727;-70
2024/04/23 02:01:32;;;;;;;8.20;6.10;;;-1.00;31.30;;;;;;5418289;26;20227;-71
2024/04/23 02:03:59;;;;;;;7.95;6.40;;;-1.00;31.30;;;;;;5418104;26;20304;-71
2024/04/23 02:06:26;;;;;;;7.82;5.03;;;-1.00;32.00;;;;;;5418087;26;20233;-71
2024/04/23 02:08:52;;;;;;;8.50;5.45;;;-1.00;32.00;;;;;;5418130;26;20333;-70
2024/04/23 02:11:17;;;;;;;8.73;6.20;;;-1.00;32.00;;;;;;5386801;26;20242;-70
2024/04/23 02:13:44;;;;;;;8.10;6.00;;;-1.00;32.20;;;;;;5387060;26;20515;-71
2024/04/23 02:16:09;;;;;;;9.63;7.63;;;-0.90;33.20;;;;;;5417848;26;20238;-72
2024/04/23 02:18:35;;;;;;;12.77;9.20;;;-1.00;33.10;;;;;;5386679;26;20234;-72
2024/04/23 02:21:00;;;;;;;8.50;7.20;;;-1.00;32.40;;;;;;5386853;26;20361;-71
2024/04/23 02:23:26;;;;;;;7.67;5.97;;;-1.00;33.10;;;;;;5418373;26;20227;-71
2024/04/23 02:25:51;;;;;;;8.73;6.23;;;-0.90;33.20;;;;;;5417925;26;20239;-70
2024/04/23 02:28:17;;;;;;;8.23;6.73;;;-1.00;32.60;;;;;;5418290;26;20218;-71
2024/04/23 02:30:42;;;;;;;9.80;6.77;;;-1.00;33.10;;;;;;5387174;26;20242;-71
2024/04/23 02:33:11;;;;;;;9.13;7.17;;;-1.00;32.80;;;;;;5418107;26;20334;-71
2024/04/23 02:35:38;;;;;;;8.85;6.70;;;-1.00;33.80;;;;;;5417903;26;20222;-71
2024/04/23 02:38:03;;;;;;;8.82;6.07;;;-1.00;32.40;;;;;;5387363;26;20312;-71
2024/04/23 02:40:29;;;;;;;7.90;6.37;;;-1.10;33.00;;;;;;5418066;26;20709;-71
2024/04/23 02:42:54;;;;;;;8.63;6.80;;;-1.00;34.10;;;;;;5418214;26;20226;-71
2024/04/23 02:45:20;;;;;;;9.10;6.53;;;-1.00;33.10;;;;;;5385912;26;20752;-70
2024/04/23 02:47:45;;;;;;;10.07;6.20;;;-1.00;33.10;;;;;;5417962;26;20706;-71
2024/04/23 02:50:11;;;;;;;8.17;6.10;;;-1.00;33.10;;;;;;5417795;26;20222;-71
2024/04/23 02:52:37;;;;;;;12.87;6.93;;;-1.00;33.10;;;;;;5386478;26;20233;-70
2024/04/23 02:55:02;;;;;;;10.37;6.87;;;-1.00;33.10;;;;;;5417444;26;20851;-72
2024/04/23 02:57:28;;;;;;;9.87;6.03;;;-1.00;33.80;;;;;;5417823;26;20289;-72
2024/04/23 02:59:53;;;;;;;11.00;7.40;;;-1.00;33.10;;;;;;5417559;26;20238;-72
2024/04/23 03:02:19;;;;;;;12.47;6.90;;;-1.10;32.40;;;;;;5417322;26;20225;-70
2024/04/23 03:04:44;;;;;;;9.93;6.27;;;-1.10;33.00;;;;;;5417555;26;20230;-72
2024/04/23 03:07:12;;;;;;;10.17;7.43;;;-1.10;32.30;;;;;;5418565;26;20249;-72
2024/04/23 03:09:38;;;;;;;9.88;8.00;;;-1.20;33.00;;;;;;5417946;26;20260;-71
2024/04/23 03:12:03;;;;;;;9.73;7.73;;;-1.20;33.00;;;;;;5385332;26;20620;-71
2024/04/23 03:14:29;;;;;;;9.67;6.30;;;-1.20;32.20;;;;;;5386441;26;20296;-71
2024/04/23 03:16:55;;;;;;;9.13;6.63;;;-1.20;33.00;;;;;;5418279;26;20609;-71
2024/04/23 03:19:21;;;;;;;11.50;6.80;;;-1.30;31.80;;;;;;5418637;26;20268;-72
2024/04/23 03:21:51;;;;;;;9.93;6.70;;;-1.30;32.90;;;;;;5417778;26;20271;-71
2024/04/23 03:24:17;;;;;;;11.38;7.38;;;-1.30;32.90;;;;;;5416983;26;20876;-70
2024/04/23 03:26:42;;;;;;;12.80;7.43;;;-1.30;31.60;;;;;;5416875;26;20279;-71
2024/04/23 03:29:08;;;;;;;10.07;7.67;;;-1.30;31.60;;;;;;5417124;26;20233;-71
2024/04/23 03:31:33;;;;;;;9.87;7.60;;;-1.40;32.10;;;;;;5417136;26;20304;-71
2024/04/23 03:33:59;;;;;;;13.27;9.50;;;-1.40;32.00;;;;;;5385639;26;20430;-71
2024/04/23 03:36:24;;;;;;;11.87;8.07;;;-1.50;30.90;;;;;;5385359;26;20244;-72
2024/04/23 03:38:50;;;;;;;8.50;7.30;;;-1.40;32.80;;;;;;5416805;26;20968;-73
2024/04/23 03:41:15;;;;;;;11.90;9.03;;;-1.40;32.80;;;;;;5385258;26;20262;-71
2024/04/23 03:43:44;;;;;;;10.30;7.90;;;-1.40;33.00;;;;;;5416918;26;20220;-70
2024/04/23 03:46:09;;;;;;;8.30;6.13;;;-1.50;32.70;;;;;;5416860;26;20281;-71
2024/04/23 03:48:35;;;;;;;10.70;6.90;;;-1.50;32.70;;;;;;5416901;26;20217;-70
2024/04/23 03:51:01;;;;;;;12.13;7.80;;;-1.40;32.80;;;;;;5385713;26;20596;-73
2024/04/23 03:53:26;;;;;;;9.07;6.67;;;-1.40;32.80;;;;;;5416722;26;20639;-71
2024/04/23 03:55:52;;;;;;;10.10;6.63;;;-1.40;33.30;;;;;;5416331;26;20217;-71
2024/04/23 03:58:17;;;;;;;9.60;7.10;;;-1.40;32.90;;;;;;5416636;26;20646;-71
2024/04/23 04:00:43;;;;;;;9.73;7.10;;;-1.40;32.80;;;;;;5417950;26;20220;-73
2024/04/23 04:06:06;;;;;;;11.18;8.32;;;-1.50;33.30;;;;;;5416344;26;20328;-71
2024/04/23 04:08:35;;;;;;;12.25;7.60;;;-1.50;33.80;;;;;;5416699;26;20287;-71
2024/04/23 04:11:01;;;;;;;10.07;7.95;;;-1.50;34.30;;;;;;5416704;26;20256;-72
2024/04/23 04:13:27;;;;;;;11.95;9.43;;;-1.50;33.70;;;;;;5416628;26;20226;-71
2024/04/23 04:15:52;;;;;;;10.10;7.67;;;-1.40;33.90;;;;;;5385166;26;20237;-72
2024/04/23 04:18:19;;;;;;;11.57;7.77;;;-1.50;33.80;;;;;;5416908;26;20232;-71
2024/04/23 04:20:44;;;;;;;8.98;6.85;;;-1.50;34.70;;;;;;5387173;26;20282;-73
2024/04/23 04:23:10;;;;;;;13.50;8.43;;;-1.50;34.20;;;;;;5416340;26;20223;-71
2024/04/23 04:25:36;;;;;;;15.00;9.70;;;-1.50;34.20;;;;;;5385352;26;20969;-72
2024/04/23 04:28:01;;;;;;;15.73;8.90;;;-1.50;34.80;;;;;;5385799;26;20275;-72
2024/04/23 04:30:27;;;;;;;12.63;9.30;;;-1.50;34.50;;;;;;5385789;26;20267;-72
2024/04/23 04:32:53;;;;;;;14.20;10.03;;;-1.40;34.80;;;;;;5385759;26;20232;-71
2024/04/23 04:35:19;;;;;;;11.40;9.10;;;-1.50;33.10;;;;;;5385007;26;20455;-71
2024/04/23 04:37:44;;;;;;;11.00;8.40;;;-1.50;34.50;;;;;;5416719;26;20283;-73
2024/04/23 04:40:11;;;;;;;10.63;7.90;;;-1.40;34.30;;;;;;5416963;26;20643;-72
2024/04/23 04:42:36;;;;;;;12.45;9.40;;;-1.40;34.50;;;;;;5417161;26;20604;-71
2024/04/23 04:45:03;;;;;;;10.30;7.40;;;-1.40;35.20;;;;;;5416185;26;20218;-72
2024/04/23 04:47:28;;;;;;;10.95;8.93;;;-1.40;35.60;;;;;;5384816;26;20534;-72
2024/04/23 04:49:54;;;;;;;13.20;9.37;;;-1.30;35.90;;;;;;5416618;26;20222;-70
2024/04/23 04:52:19;;;;;;;11.60;9.87;;;-1.30;35.70;;;;;;5417138;26;20271;-71
2024/04/23 04:54:45;;;;;;;11.20;8.07;;;-1.20;36.20;;;;;;5416777;26;20268;-71
2024/04/23 04:57:10;;;;;;;11.90;8.90;;;-1.10;35.90;;;;;;5418584;26;20241;-72
2024/04/23 04:59:36;;;;;;;12.47;8.80;;;-1.10;34.60;;;;;;5395359;26;20233;-72
2024/04/23 05:02:01;;;;;;;12.97;8.73;;;-1.20;35.10;;;;;;5434901;26;20306;-71
2024/04/23 05:04:27;;;;;;;16.90;10.40;;;-1.10;35.50;;;;;;5393710;26;20233;-71
2024/04/23 05:06:53;;;;;;;12.20;8.10;;;-1.10;35.10;;;;;;5398214;26;20238;-72
2024/04/23 05:09:18;;;;;;;13.43;9.13;;;-1.10;34.80;;;;;;5417129;26;20261;-73
2024/04/23 05:11:44;;;;;;;13.03;9.37;;;-1.10;34.10;;;;;;5416719;26;20311;-71
2024/04/23 05:14:10;;;;;;;11.27;9.30;;;-1.00;35.40;;;;;;5385343;26;20568;-71
2024/04/23 05:16:35;;;;;;;11.57;8.80;;;-1.00;34.70;;;;;;5385175;26;20848;-72
2024/04/23 05:19:01;;;;;;;13.43;9.90;;;-0.90;35.50;;;;;;5385163;26;20471;-71
2024/04/23 05:21:28;;;;;;;11.23;9.10;;;-0.70;36.80;;;;;;5416734;26;20717;-71
2024/04/23 05:23:53;;;;;;;13.23;9.43;;;-0.50;38.00;;;;;;5384883;26;20459;-71
2024/04/23 05:26:19;;;;;;;15.00;11.03;;;-0.30;38.30;;;;;;5415910;26;20567;-71
2024/04/23 05:28:45;;;;;;;12.80;10.93;;;0.00;39.00;;;;;;5415875;26;20336;-71
2024/04/23 05:33:55;;;;;;;15.10;10.40;;;0.60;40.40;;;;;;5415422;26;20566;-71
2024/04/23 05:36:25;;;;;;;14.13;11.03;;;0.90;39.30;;;;;;5415439;26;20232;-71
2024/04/23 05:38:51;;;;;;;12.27;9.90;;;1.00;39.60;;;;;;5415674;26;20255;-70
2024/04/23 05:41:17;;;;;;;14.95;10.90;;;1.60;42.50;;;;;;5415151;26;20632;-71
2024/04/23 05:43:43;;;;;;;15.83;10.80;;;2.70;46.20;;;;;;5384240;26;20231;-71
2024/04/23 05:46:08;;;;;;;10.77;8.20;;;3.40;47.70;;;;;;5415146;26;21142;-71
2024/04/23 05:49:12;;;;;;;9.27;7.03;;;3.50;41.00;;;;;;5383515;26;20255;-73
2024/04/23 05:52:15;;;;;;;8.80;7.80;;;3.50;28.40;;;;;;5417132;26;20223;-72
2024/04/23 05:55:18;;;;;;;11.23;7.43;;;3.80;20.70;;;;;;5415985;26;20334;-72
2024/04/23 05:57:44;;;;;;;10.25;8.45;;;4.00;10.90;;;;;;5415148;26;20242;-71
2024/04/23 06:00:09;;;;;;;8.37;6.93;;;4.10;6.10;;;;;;5415253;26;20262;-71
2024/04/23 06:02:35;;;;;;;10.17;6.50;;;4.10;1.00;;;;;;5414747;26;20229;-72
2024/04/23 06:05:01;;;;;;;6.83;6.10;;;4.10;1.00;;;;;;5415303;26;20506;-71
2024/04/23 06:07:26;;;;;;;6.43;5.27;;;3.80;1.00;;;;;;5415378;26;20229;-71
2024/04/23 06:09:52;;;;;;;7.60;5.47;;;3.80;1.00;;;;;;5385084;26;20590;-72
2024/04/23 06:12:17;;;;;;;8.73;4.80;;;3.60;1.00;;;;;;5383691;26;20226;-70
2024/04/23 06:14:43;;;;;;;7.67;4.60;;;3.50;1.00;;;;;;5415169;26;20682;-71
2024/04/23 06:17:23;;;;;;;8.32;5.90;;;3.90;1.00;;;;;;5415415;26;20245;-72
2024/04/23 06:19:52;;;;;;;7.43;5.72;;;5.30;1.00;;;;;;5415214;26;20235;-71
2024/04/23 06:22:22;;;;;;;6.17;5.50;;;7.30;1.00;;;;;;5414538;26;20606;-70
2024/04/23 06:24:52;;;;;;;7.07;5.37;;;9.00;1.00;;;;;;5382913;26;20457;-71
2024/04/23 06:27:22;;;;;;;7.47;5.30;;;9.40;1.00;;;;;;5414954;26;21011;-70
2024/04/23 06:29:49;;;;;;;7.70;5.50;;;7.90;1.00;;;;;;5382894;26;20517;-71
2024/04/23 06:32:15;;;;;;;5.20;4.70;;;7.30;1.00;;;;;;5414572;26;20885;-71
2024/04/23 06:34:41;;;;;;;6.40;5.03;;;6.70;1.00;;;;;;5414389;26;20802;-70
2024/04/23 06:37:07;;;;;;;7.37;5.77;;;6.40;1.00;;;;;;5383654;26;21377;-71
2024/04/23 06:39:32;;;;;;;7.87;5.90;;;6.20;1.00;;;;;;5383471;26;20457;-71
2024/04/23 06:41:58;;;;;;;11.00;6.30;;;5.70;1.00;;;;;;5383262;26;20299;-70
2024/04/23 06:44:24;;;;;;;7.73;4.83;;;5.40;1.00;;;;;;5414063;26;20787;-71
2024/04/23 06:46:50;;;;;;;7.33;5.73;;;5.60;1.00;;;;;;5417831;26;20359;-71
2024/04/23 06:49:15;;;;;;;8.10;5.33;;;5.40;1.00;;;;;;5417774;26;20460;-70
2024/04/23 06:51:41;;;;;;;7.37;5.67;;;5.20;1.00;;;;;;5417828;26;20232;-71
2024/04/23 06:54:07;;;;;;;6.63;5.30;;;4.80;1.00;;;;;;5386563;26;20294;-70
2024/04/23 06:56:32;;;;;;;6.73;5.53;;;4.60;1.00;;;;;;5417820;26;20728;-71
2024/04/23 06:58:58;;;;;;;8.17;7.03;;;4.50;1.00;;;;;;5418282;26;20220;-71
2024/04/23 07:01:23;;;;;;;9.00;6.50;;;4.50;1.00;;;;;;5418077;26;20237;-71
2024/04/23 07:03:49;;;;;;;8.90;6.60;;;4.80;1.00;;;;;;5417744;26;20224;-71
2024/04/23 07:06:15;;;;;;;6.07;5.07;;;4.90;1.00;;;;;;5417498;26;20327;-70
2024/04/23 07:08:40;;;;;;;9.00;6.63;;;5.30;1.00;;;;;;5417941;26;20263;-72
2024/04/23 07:11:06;;;;;;;8.60;5.70;;;5.80;1.00;;;;;;5417908;26;20573;-71
2024/04/23 07:13:31;;;;;;;7.20;6.10;;;6.10;1.00;;;;;;5417952;26;20233;-71
2024/04/23 07:15:57;;;;;;;7.83;6.20;;;6.50;1.00;;;;;;5417274;26;20270;-71
2024/04/23 07:18:23;;;;;;;5.80;5.30;;;7.40;1.00;;;;;;5418206;26;20311;-71
2024/04/23 07:20:48;;;;;;;9.00;5.83;;;7.60;1.00;;;;;;5417814;26;20227;-72
2024/04/23 07:23:14;;;;;;;7.27;6.57;;;7.70;1.00;;;;;;5386089;26;20364;-72
2024/04/23 07:25:39;;;;;;;6.23;5.63;;;7.50;1.00;;;;;;5417256;26;20328;-69
2024/04/23 07:28:05;;;;;;;7.43;5.50;;;7.50;1.00;;;;;;5417585;26;20339;-70
2024/04/23 07:30:30;;;;;;;9.60;6.27;;;7.40;1.00;;;;;;5417128;26;20263;-70
2024/04/23 07:32:56;;;;;;;8.97;5.57;;;8.30;1.00;;;;;;5417363;26;20616;-70
2024/04/23 07:35:22;;;;;;;6.70;5.70;;;8.10;1.00;;;;;;5416791;26;20266;-71
2024/04/23 07:37:48;;;;;;;8.33;6.30;;;7.80;1.00;;;;;;5416660;26;20274;-71
2024/04/23 07:40:14;;;;;;;8.47;7.10;;;7.50;1.00;;;;;;5417021;26;20453;-71
2024/04/23 07:42:39;;;;;;;7.80;5.50;;;8.20;1.00;;;;;;5417008;26;20224;-71
2024/04/23 07:45:06;;;;;;;7.13;6.03;;;8.00;1.00;;;;;;5417188;26;20567;-72
2024/04/23 07:47:33;;;;;;;6.60;5.80;;;7.30;1.00;;;;;;5430432;21;20738;-69
2024/04/23 07:49:59;;;;;;;7.13;6.20;;;7.50;1.00;;;;;;5412899;26;20441;-69
2024/04/23 07:52:26;;;;;;;6.90;5.70;;;7.90;1.00;;;;;;5413565;26;20442;-69
2024/04/23 07:54:52;;;;;;;8.70;6.60;;;7.90;1.00;;;;;;5411545;26;21001;-69
2024/04/23 07:57:18;;;;;;;9.17;5.70;;;7.90;1.00;;;;;;5381134;26;20548;-69
2024/04/23 07:59:44;;;;;;;6.60;5.30;;;7.30;1.00;;;;;;5381927;26;20453;-70
2024/04/23 08:02:09;;;;;;;7.90;7.10;;;7.20;1.00;;;;;;5412026;26;20438;-70
2024/04/23 08:04:35;;;;;;;8.30;6.30;;;7.10;1.00;;;;;;5412385;26;20258;-70
2024/04/23 08:07:01;;;;;;;7.07;5.60;;;7.30;1.00;;;;;;5380524;26;20233;-70
2024/04/23 08:09:26;;;;;;;11.00;6.27;;;7.50;1.00;;;;;;5412053;26;20652;-71
2024/04/23 08:11:52;;;;;;;6.67;5.80;;;7.30;1.00;;;;;;5412532;26;20227;-70
2024/04/23 08:14:17;;;;;;;10.07;5.60;;;7.10;1.00;;;;;;5413416;26;20224;-68
2024/04/23 08:16:43;;;;;;;6.90;6.17;;;6.90;1.00;;;;;;5412643;26;20228;-71
2024/04/23 08:19:09;;;;;;;9.10;5.40;;;8.20;1.00;;;;;;5411966;26;20308;-71
2024/04/23 08:21:39;;;;;;;8.13;6.93;;;8.40;1.00;;;;;;5381038;26;20224;-70
2024/04/23 08:24:07;;;;;;;8.50;6.60;;;8.90;1.00;;;;;;5379487;26;20314;-69
2024/04/23 08:26:33;;;;;;;8.43;6.57;;;10.60;1.00;;;;;;5410416;26;20504;-69
2024/04/23 08:28:59;;;;;;;7.33;5.90;;;10.40;1.00;;;;;;5380840;26;20468;-71
2024/04/23 08:31:25;;;;;;;7.97;6.70;;;9.30;1.00;;;;;;5411860;26;20222;-70
2024/04/23 08:33:51;;;;;;;7.80;7.00;;;9.50;1.00;;;;;;5410788;26;20465;-70
2024/04/23 08:36:17;;;;;;;8.33;6.97;;;10.10;1.00;;;;;;5409510;26;20566;-70
2024/04/23 08:38:43;;;;;;;7.40;6.57;;;11.40;1.00;;;;;;5409217;26;20223;-70
2024/04/23 08:41:18;;;;;;;9.20;8.27;;;12.60;1.00;;;;;;5408838;26;20494;-69
2024/04/23 08:44:02;;;;;;;8.00;7.23;;;14.20;1.00;;;;;;5378260;26;20320;-70
2024/04/23 08:46:28;;;;;;;7.40;6.70;;;13.00;1.00;;;;;;5409284;26;20470;-69
2024/04/23 08:48:54;;;;;;;7.70;6.90;;;11.00;1.00;;;;;;5410689;26;21052;-69
2024/04/23 08:51:20;;;;;;;7.40;6.70;;;10.20;1.00;;;;;;5410056;26;20449;-70
2024/04/23 08:53:48;;;;;;;6.73;6.13;;;10.10;1.00;;;;;;5410228;26;20605;-69
2024/04/23 08:56:22;;;;;;;6.63;5.93;;;9.20;1.00;;;;;;5410556;26;20494;-71
2024/04/23 08:58:49;;;;;;;8.00;6.60;;;9.20;1.00;;;;;;5410408;26;20452;-69
2024/04/23 09:01:27;;;;;;;7.27;6.47;;;8.50;1.00;;;;;;5410923;26;20488;-69
2024/04/23 09:03:58;;;;;;;6.43;5.70;;;8.20;1.00;;;;;;5410953;26;20451;-69
2024/04/23 09:06:25;;;;;;;8.50;6.83;;;8.00;1.00;;;;;;5379771;26;20563;-70
2024/04/23 09:08:52;;;;;;;6.80;6.10;;;7.80;1.00;;;;;;5378923;26;20455;-69
2024/04/23 09:11:17;;;;;;;7.43;6.63;;;7.40;1.00;;;;;;5411429;26;20534;-68
2024/04/23 09:13:43;;;;;;;12.03;7.03;;;7.30;1.00;;;;;;5411294;26;20446;-69
2024/04/23 09:16:09;;;;;;;7.60;5.63;;;7.00;1.00;;;;;;5410698;26;20224;-69
2024/04/23 09:18:35;;;;;;;7.70;6.63;;;7.00;1.00;;;;;;5410912;26;20276;-69
2024/04/23 09:21:02;;;;;;;6.93;5.97;;;7.10;1.00;;;;;;5409862;26;21048;-69
2024/04/23 09:23:28;;;;;;;7.37;5.50;;;7.30;1.00;;;;;;5411011;26;20225;-70
2024/04/23 09:25:58;;;;;;;7.00;6.17;;;7.30;1.00;;;;;;5410237;26;21111;-70
2024/04/23 09:28:25;;;;;;;7.50;6.60;;;7.30;1.00;;;;;;5410665;26;20517;-70
2024/04/23 09:30:51;;;;;;;6.70;6.00;;;7.30;1.00;;;;;;5379893;26;20709;-70
2024/04/23 09:33:29;;;;;;;10.00;6.70;;;7.40;1.00;;;;;;5410714;26;20501;-69
2024/04/23 09:36:09;;;;;;;6.60;6.00;;;7.50;1.00;;;;;;5378578;26;20531;-71
2024/04/23 09:38:41;;;;;;;6.73;6.03;;;7.60;1.00;;;;;;5379749;26;20983;-69
2024/04/23 09:41:08;;;;;;;6.93;5.90;;;7.60;1.00;;;;;;5379925;26;20509;-69
2024/04/23 09:43:34;;;;;;;7.13;6.43;;;7.80;1.00;;;;;;5411067;26;20487;-69
2024/04/23 09:46:02;;;;;;;7.50;5.60;;;8.00;1.00;;;;;;5378663;26;20463;-71
2024/04/23 09:48:35;;;;;;;8.90;6.40;;;8.20;1.00;;;;;;5410818;26;20459;-69
2024/04/23 09:51:01;;;;;;;7.00;5.83;;;8.20;1.00;;;;;;5378844;26;20456;-70
2024/04/23 09:53:37;;;;;;;6.77;6.07;;;8.60;1.00;;;;;;5409685;26;20464;-69
2024/04/23 09:56:05;;;;;;;8.63;7.80;;;9.10;1.00;;;;;;5377617;26;20456;-69
2024/04/23 09:58:34;;;;;;;5.30;4.80;;;9.40;1.00;;;;;;5378374;26;20458;-70
2024/04/23 10:01:01;;;;;;;8.33;7.63;;;9.90;1.00;;;;;;5410489;26;20445;-69
2024/04/23 10:03:30;;;;;;;7.00;5.93;;;9.60;1.00;;;;;;5409090;26;20551;-69
2024/04/23 10:06:06;;;;;;;9.60;6.60;;;9.50;1.00;;;;;;5409153;26;20560;-70
2024/04/23 10:08:35;;;;;;;7.67;6.87;;;9.00;1.00;;;;;;5409866;26;20454;-69
2024/04/23 10:11:01;;;;;;;7.17;6.50;;;8.60;1.00;;;;;;5379023;26;20501;-70
2024/04/23 10:13:33;;;;;;;11.77;5.90;;;8.70;1.00;;;;;;5409616;26;21047;-71
2024/04/23 10:16:06;;;;;;;8.17;7.37;;;9.00;1.00;;;;;;5377852;26;20461;-70
2024/04/23 10:18:45;;;;;;;6.90;5.97;;;9.30;1.00;;;;;;5410154;26;20449;-69
2024/04/23 10:21:15;;;;;;;6.50;5.87;;;9.50;1.00;;;;;;5412318;26;20580;-70
2024/04/23 10:23:43;;;;;;;10.33;6.40;;;9.60;1.00;;;;;;5412370;26;20465;-70
2024/04/23 10:26:10;;;;;;;7.53;5.87;;;9.70;1.00;;;;;;5380619;26;20506;-69
2024/04/23 10:28:36;;;;;;;7.17;6.47;;;9.50;1.00;;;;;;5380758;26;20457;-68
2024/04/23 10:31:02;;;;;;;5.90;5.30;;;9.80;1.00;;;;;;5411394;26;20450;-69
2024/04/23 10:33:30;;;;;;;6.27;5.67;;;10.10;1.00;;;;;;5411798;26;20441;-70
2024/04/23 10:35:59;;;;;;;6.37;5.77;;;10.30;1.00;;;;;;5411432;26;20449;-70
2024/04/23 10:38:30;;;;;;;6.97;6.23;;;10.40;1.00;;;;;;5380604;26;20520;-70
2024/04/23 10:40:55;;;;;;;8.43;6.70;;;10.10;1.00;;;;;;5414638;26;20450;-70
2024/04/23 10:43:22;;;;;;;8.00;7.30;;;10.20;1.00;;;;;;5414436;26;20708;-70
2024/04/23 10:45:48;;;;;;;7.20;6.50;;;10.40;1.00;;;;;;5412720;26;20223;-70
2024/04/23 10:48:23;;;;;;;6.30;5.70;;;10.10;1.00;;;;;;5411363;26;20800;-69
2024/04/23 10:50:53;;;;;;;7.13;6.40;;;9.80;1.00;;;;;;5412456;26;20273;-70
2024/04/23 10:53:22;;;;;;;8.13;7.33;;;9.60;1.00;;;;;;5411385;26;20460;-69
2024/04/23 10:55:51;;;;;;;8.53;7.67;;;9.70;1.00;;;;;;5380547;26;20460;-69
2024/04/23 10:58:20;;;;;;;8.90;6.93;;;10.00;1.00;;;;;;5380147;26;20473;-69
2024/04/23 11:00:45;;;;;;;7.97;7.20;;;9.80;1.00;;;;;;5411348;26;20510;-70
2024/04/23 11:03:17;;;;;;;6.60;5.93;;;10.40;1.00;;;;;;5411160;26;20445;-70
2024/04/23 11:05:47;;;;;;;7.10;6.47;;;10.50;1.00;;;;;;5410713;26;20254;-70
2024/04/23 11:08:28;;;;;;;8.63;7.63;;;10.80;1.00;;;;;;5411824;26;20521;-69
2024/04/23 11:11:04;;;;;;;7.37;6.70;;;10.30;1.00;;;;;;5410791;26;21058;-69
2024/04/23 11:13:40;;;;;;;6.40;5.80;;;10.60;1.00;;;;;;5410578;26;20445;-70
2024/04/23 11:16:16;;;;;;;7.70;7.00;;;11.20;1.00;;;;;;5409828;26;20917;-69
2024/04/23 11:18:43;;;;;;;8.20;7.40;;;11.70;1.00;;;;;;5410136;26;20462;-71
2024/04/23 11:21:09;;;;;;;7.10;6.50;;;11.80;1.00;;;;;;5410815;26;20446;-69
2024/04/23 11:23:40;;;;;;;7.03;6.40;;;11.40;1.00;;;;;;5411640;26;20497;-69
2024/04/23 11:26:11;;;;;;;9.20;6.90;;;10.70;1.00;;;;;;5411134;26;20450;-70
2024/04/23 11:28:38;;;;;;;6.70;6.10;;;10.80;1.00;;;;;;5411128;26;20534;-70
2024/04/23 11:31:05;;;;;;;7.83;7.13;;;10.90;1.00;;;;;;5411018;26;20450;-69
2024/04/23 11:33:30;;;;;;;7.27;6.57;;;11.00;1.00;;;;;;5410232;26;20492;-70
2024/04/23 11:35:58;;;;;;;8.00;7.20;;;11.60;1.00;;;;;;5410548;26;20577;-71
2024/04/23 11:38:23;;;;;;;7.10;6.50;;;11.80;1.00;;;;;;5409865;26;20469;-69
2024/04/23 11:41:04;;;;;;;6.97;6.37;;;11.80;1.00;;;;;;5378517;26;20519;-69
2024/04/23 11:43:30;;;;;;;7.17;6.53;;;11.60;1.00;;;;;;5409717;26;20450;-71
2024/04/23 11:45:56;;;;;;;6.10;5.60;;;11.70;1.00;;;;;;5409939;26;21032;-70
2024/04/23 11:48:21;;;;;;;6.20;5.60;;;11.40;1.00;;;;;;5377740;26;20288;-70
2024/04/23 11:50:47;;;;;;;7.10;6.40;;;11.80;1.00;;;;;;5377881;26;20224;-68
2024/04/23 11:53:16;;;;;;;7.00;6.40;;;11.90;1.00;;;;;;5409963;26;20558;-69
2024/04/23 11:55:41;;;;;;;7.00;6.40;;;12.20;1.00;;;;;;5377296;26;20223;-69
2024/04/23 11:58:07;;;;;;;7.47;6.50;;;12.30;1.00;;;;;;5410007;26;20547;-67
2024/04/23 12:00:33;;;;;;;6.67;6.07;;;11.90;1.00;;;;;;5409764;26;20321;-72
2024/04/23 12:02:58;;;;;;;6.80;6.20;;;11.40;1.00;;;;;;5410330;26;20640;-69
2024/04/23 12:05:26;;;;;;;7.70;6.30;;;11.10;1.00;;;;;;5410357;26;20781;-70
2024/04/23 12:07:52;;;;;;;6.40;5.90;;;10.80;1.00;;;;;;5409938;26;20320;-70
2024/04/23 12:10:29;;;;;;;8.00;7.30;;;10.90;1.00;;;;;;5409444;26;20887;-70
2024/04/23 12:12:54;;;;;;;7.13;6.53;;;11.10;1.00;;;;;;5409733;26;20453;-69
2024/04/23 12:15:21;;;;;;;8.87;7.80;;;11.50;1.00;;;;;;5408974;26;20497;-70
2024/04/23 12:17:47;;;;;;;7.53;6.77;;;11.60;1.00;;;;;;5377811;26;20231;-69
2024/04/23 12:20:14;;;;;;;6.50;6.00;;;11.40;1.00;;;;;;5410005;26;20438;-70
2024/04/23 12:22:44;;;;;;;6.43;5.93;;;11.20;1.00;;;;;;5409544;26;20664;-69
2024/04/23 12:25:11;;;;;;;6.10;5.60;;;11.10;1.00;;;;;;5409984;26;20575;-69
2024/04/23 12:27:37;;;;;;;6.97;6.37;;;10.80;1.00;;;;;;5410083;26;20570;-70
2024/04/23 12:30:07;;;;;;;7.60;6.90;;;11.20;1.00;;;;;;5378079;26;20462;-69
2024/04/23 12:32:33;;;;;;;6.20;5.70;;;11.50;1.00;;;;;;5409266;26;20889;-69
2024/04/23 12:34:58;;;;;;;6.03;5.53;;;11.60;1.00;;;;;;5377155;26;20454;-70
2024/04/23 12:37:24;;;;;;;5.83;5.27;;;11.50;1.00;;;;;;5409463;26;20584;-69
2024/04/23 12:39:53;;;;;;;6.17;5.57;;;11.00;1.00;;;;;;5379931;26;20271;-70
2024/04/23 12:42:24;;;;;;;7.50;5.60;;;10.70;1.00;;;;;;5409250;26;20433;-70
2024/04/23 12:44:50;;;;;;;6.50;5.90;;;10.70;1.00;;;;;;5408908;26;20457;-71
2024/04/23 12:47:16;;;;;;;6.60;5.00;;;10.70;1.00;;;;;;5409383;26;20543;-70
2024/04/23 12:49:41;;;;;;;5.10;4.60;;;11.20;1.00;;;;;;5408843;26;20301;-69
2024/04/23 12:52:07;;;;;;;6.43;5.73;;;11.40;1.00;;;;;;5409807;26;20216;-69
2024/04/23 12:54:33;;;;;;;5.60;5.20;;;11.40;1.00;;;;;;5408943;26;20220;-68
2024/04/23 12:56:58;;;;;;;6.83;6.17;;;11.70;1.00;;;;;;5408470;26;20731;-70
2024/04/23 12:59:25;;;;;;;6.90;6.03;;;11.90;1.00;;;;;;5408854;26;20603;-70